Isanti, MN (55040)

10:39 PM CDT del 28 Agosto 2016 (GMT -0500)
5 Mi SW of Cambridge on Rum River | | Change Station

Alt. 935 ft 45.52 °N, 93.27 °W | Updated 6 seconds ago

Clear
Sereno
69.6 °F
Sembra 69.6 °F
N
4.0
Vento Variabile Vento da ESE
Gusts 7.0 mph

Oggi
Massima -- | Minima -- °F
--% Possibilità di precip.
Ieri
Massima -- | Minima -- °F
Precip. -- in
Pressione 30.11 in
Visibilità 10.0 miglia
Nuvole Sereno
Punto di rugiada 68 °F
Umidità 96%
Piovosità 0.02 in
Spessore del manto nevoso Non disponibile.
6:30 AM 7:57 PM
Luna calante, 11% visible
METAR KCBG 290335Z AUTO 13004KT 10SM CLR 23/18 A3011 RMK AO2
Pressione 30.11 in
Visibilità 10.0 miglia
Nuvole Sereno
Punto di rugiada 68 °F
Umidità 96%
Piovosità 0.02 in
Spessore del manto nevoso Non disponibile.
6:30 AM 7:57 PM
Luna calante, 11% visible
METAR KCBG 290335Z AUTO 13004KT 10SM CLR 23/18 A3011 RMK AO2

10-Day Weather Forecast

Almanac

Astronomia

Aug. 28, 2016 Alba Tramonto
Ora attuale
Crepuscolo civile
Crepuscolo nautico
Crepuscolo astronomico
Luna
Estensione della luce visibile
Lunghezza del giorno
Tomorrow will be .
, % of the Moon is Illuminated

Gli estremi di oggi

State Highs State Lows

Community

WunderPhotos

Upload Photos

1,935,782 foto caricate!

WunderBlog® & News

Nearby

Qualità dell'aria

  Qualità dell'aria Indice AQ Inquinante
Not available.

Profondità neve

Stazione Profondità Altitudine

Attività sismica

Città  Distanza Mag. Data & Ora
Minimo Magnitudo Mostrato è 2.5.

Temperature delle acque costiere

Località Temperatura

Stations

Stazioni meteo nelle vicinanze

Ubicazione della stazione Temp. Raffreddamento del vento Punto di rugiada Umidità Vento Precip. Alt. Aggiornato Tipo
                   

Watches & Warnings

There are currently no watches in effect.